sensor_id;sensor_type;location;lat;lon;timestamp;pressure;altitude;pressure_sealevel;temperature;humidity
84878;BME280;75140;47.754;8.840;2024-03-02T00:00:20;95625.47;;;5.53;99.21
84878;BME280;75140;47.754;8.840;2024-03-02T00:02:49;95629.28;;;5.36;98.25
84878;BME280;75140;47.754;8.840;2024-03-02T00:05:16;95620.75;;;5.34;98.50
84878;BME280;75140;47.754;8.840;2024-03-02T00:07:43;95613.91;;;5.40;98.31
84878;BME280;75140;47.754;8.840;2024-03-02T00:10:11;95621.53;;;5.35;99.00
84878;BME280;75140;47.754;8.840;2024-03-02T00:12:37;95628.72;;;5.41;98.74
84878;BME280;75140;47.754;8.840;2024-03-02T00:18:04;95625.44;;;5.39;98.39
84878;BME280;75140;47.754;8.840;2024-03-02T00:20:30;95628.44;;;5.36;98.43
84878;BME280;75140;47.754;8.840;2024-03-02T00:23:07;95621.56;;;5.49;98.75
84878;BME280;75140;47.754;8.840;2024-03-02T00:25:41;95617.13;;;5.50;97.64
84878;BME280;75140;47.754;8.840;2024-03-02T00:28:17;95620.28;;;5.45;97.96
84878;BME280;75140;47.754;8.840;2024-03-02T00:30:47;95625.09;;;5.42;97.93
84878;BME280;75140;47.754;8.840;2024-03-02T00:33:16;95617.56;;;5.39;97.54
84878;BME280;75140;47.754;8.840;2024-03-02T00:35:44;95624.16;;;5.35;98.21
84878;BME280;75140;47.754;8.840;2024-03-02T00:38:10;95625.44;;;5.24;99.18
84878;BME280;75140;47.754;8.840;2024-03-02T00:40:35;95617.25;;;5.19;98.85
84878;BME280;75140;47.754;8.840;2024-03-02T00:43:01;95625.91;;;5.28;98.77
84878;BME280;75140;47.754;8.840;2024-03-02T00:45:28;95627.59;;;5.21;98.41
84878;BME280;75140;47.754;8.840;2024-03-02T00:47:54;95628.41;;;5.21;98.74
84878;BME280;75140;47.754;8.840;2024-03-02T00:50:19;95630.75;;;5.16;99.09
84878;BME280;75140;47.754;8.840;2024-03-02T00:52:46;95624.16;;;5.20;98.44
84878;BME280;75140;47.754;8.840;2024-03-02T00:55:13;95632.50;;;5.24;98.06
84878;BME280;75140;47.754;8.840;2024-03-02T00:57:39;95628.13;;;5.16;97.74
84878;BME280;75140;47.754;8.840;2024-03-02T01:00:05;95632.75;;;5.14;98.30
84878;BME280;75140;47.754;8.840;2024-03-02T01:02:34;95631.09;;;5.13;97.99
84878;BME280;75140;47.754;8.840;2024-03-02T01:05:00;95630.41;;;5.19;97.62
84878;BME280;75140;47.754;8.840;2024-03-02T01:07:25;95629.81;;;5.09;98.38
84878;BME280;75140;47.754;8.840;2024-03-02T01:09:51;95631.09;;;5.13;98.16
84878;BME280;75140;47.754;8.840;2024-03-02T01:12:16;95635.53;;;5.13;98.02
84878;BME280;75140;47.754;8.840;2024-03-02T01:14:42;95644.06;;;5.15;97.86
84878;BME280;75140;47.754;8.840;2024-03-02T01:17:07;95628.56;;;5.05;98.55
84878;BME280;75140;47.754;8.840;2024-03-02T01:19:32;95640.47;;;4.93;98.78
84878;BME280;75140;47.754;8.840;2024-03-02T01:21:58;95639.91;;;5.06;99.41
84878;BME280;75140;47.754;8.840;2024-03-02T01:24:23;95634.03;;;4.96;98.35
84878;BME280;75140;47.754;8.840;2024-03-02T01:26:49;95646.84;;;4.99;98.91
84878;BME280;75140;47.754;8.840;2024-03-02T01:29:14;95643.38;;;4.98;99.19
84878;BME280;75140;47.754;8.840;2024-03-02T01:31:39;95635.31;;;5.00;99.05
84878;BME280;75140;47.754;8.840;2024-03-02T01:34:07;95631.69;;;5.01;98.31
84878;BME280;75140;47.754;8.840;2024-03-02T01:36:32;95639.28;;;5.18;98.92
84878;BME280;75140;47.754;8.840;2024-03-02T01:38:58;95647.47;;;5.01;98.24
84878;BME280;75140;47.754;8.840;2024-03-02T01:41:23;95649.13;;;5.02;99.34
84878;BME280;75140;47.754;8.840;2024-03-02T01:43:49;95639.44;;;5.02;99.71
84878;BME280;75140;47.754;8.840;2024-03-02T01:46:14;95646.59;;;4.85;98.55
84878;BME280;75140;47.754;8.840;2024-03-02T01:48:39;95636.72;;;4.87;98.49
84878;BME280;75140;47.754;8.840;2024-03-02T01:51:05;95637.38;;;4.89;98.27
84878;BME280;75140;47.754;8.840;2024-03-02T01:53:31;95625.06;;;4.90;99.18
84878;BME280;75140;47.754;8.840;2024-03-02T01:55:57;95621.53;;;4.98;99.66
84878;BME280;75140;47.754;8.840;2024-03-02T01:58:22;95625.16;;;4.97;100.00
84878;BME280;75140;47.754;8.840;2024-03-02T02:00:48;95629.25;;;4.99;99.61
84878;BME280;75140;47.754;8.840;2024-03-02T02:03:13;95618.97;;;4.89;98.90
84878;BME280;75140;47.754;8.840;2024-03-02T02:05:38;95627.25;;;4.78;99.51
84878;BME280;75140;47.754;8.840;2024-03-02T02:08:04;95620.84;;;4.81;99.72
84878;BME280;75140;47.754;8.840;2024-03-02T02:10:29;95628.56;;;4.82;99.70
84878;BME280;75140;47.754;8.840;2024-03-02T02:12:55;95628.91;;;4.79;100.00
84878;BME280;75140;47.754;8.840;2024-03-02T02:15:30;95641.03;;;4.80;99.70
84878;BME280;75140;47.754;8.840;2024-03-02T02:17:57;95638.78;;;4.77;99.47
84878;BME280;75140;47.754;8.840;2024-03-02T02:20:23;95635.50;;;4.75;99.90
84878;BME280;75140;47.754;8.840;2024-03-02T02:23:03;95634.72;;;4.67;100.00
84878;BME280;75140;47.754;8.840;2024-03-02T02:25:29;95638.88;;;4.61;99.64
84878;BME280;75140;47.754;8.840;2024-03-02T02:27:55;95636.47;;;4.52;98.80
84878;BME280;75140;47.754;8.840;2024-03-02T02:30:29;95628.69;;;4.58;99.47
84878;BME280;75140;47.754;8.840;2024-03-02T02:32:55;95633.06;;;4.43;99.58
84878;BME280;75140;47.754;8.840;2024-03-02T02:35:20;95627.75;;;4.51;100.00
84878;BME280;75140;47.754;8.840;2024-03-02T02:37:47;95622.47;;;4.59;100.00
84878;BME280;75140;47.754;8.840;2024-03-02T02:40:14;95626.00;;;4.44;99.27
84878;BME280;75140;47.754;8.840;2024-03-02T02:42:39;95619.63;;;4.38;100.00
84878;BME280;75140;47.754;8.840;2024-03-02T02:45:08;95629.00;;;4.41;100.00
84878;BME280;75140;47.754;8.840;2024-03-02T02:47:33;95621.72;;;4.43;100.00
84878;BME280;75140;47.754;8.840;2024-03-02T02:50:03;95627.69;;;4.37;100.00
84878;BME280;75140;47.754;8.840;2024-03-02T02:52:33;95624.28;;;4.28;100.00
84878;BME280;75140;47.754;8.840;2024-03-02T02:54:59;95626.56;;;4.31;99.56
84878;BME280;75140;47.754;8.840;2024-03-02T02:57:24;95625.28;;;4.27;100.00
84878;BME280;75140;47.754;8.840;2024-03-02T02:59:50;95622.03;;;4.17;100.00
84878;BME280;75140;47.754;8.840;2024-03-02T03:02:15;95623.69;;;4.18;100.00
84878;BME280;75140;47.754;8.840;2024-03-02T03:04:40;95627.91;;;4.27;100.00
84878;BME280;75140;47.754;8.840;2024-03-02T03:07:06;95616.41;;;4.28;100.00
84878;BME280;75140;47.754;8.840;2024-03-02T03:09:32;95624.28;;;4.28;99.84
84878;BME280;75140;47.754;8.840;2024-03-02T03:11:57;95610.06;;;4.45;100.00
84878;BME280;75140;47.754;8.840;2024-03-02T03:14:22;95608.13;;;4.39;100.00
84878;BME280;75140;47.754;8.840;2024-03-02T03:16:48;95616.75;;;4.56;100.00
84878;BME280;75140;47.754;8.840;2024-03-02T03:19:13;95608.34;;;4.60;98.90
84878;BME280;75140;47.754;8.840;2024-03-02T03:21:39;95600.16;;;4.55;99.28
84878;BME280;75140;47.754;8.840;2024-03-02T03:24:05;95603.13;;;4.52;99.96
84878;BME280;75140;47.754;8.840;2024-03-02T03:26:31;95603.50;;;4.49;99.91
84878;BME280;75140;47.754;8.840;2024-03-02T03:28:56;95608.31;;;4.38;99.59
84878;BME280;75140;47.754;8.840;2024-03-02T03:31:23;95617.06;;;4.30;99.92
84878;BME280;75140;47.754;8.840;2024-03-02T03:33:48;95617.44;;;4.19;99.62
84878;BME280;75140;47.754;8.840;2024-03-02T03:36:13;95614.13;;;4.25;100.00
84878;BME280;75140;47.754;8.840;2024-03-02T03:38:39;95617.00;;;4.38;99.37
84878;BME280;75140;47.754;8.840;2024-03-02T03:41:04;95613.91;;;4.35;99.42
84878;BME280;75140;47.754;8.840;2024-03-02T03:43:29;95626.34;;;4.10;99.40
84878;BME280;75140;47.754;8.840;2024-03-02T03:45:55;95620.84;;;4.28;100.00
84878;BME280;75140;47.754;8.840;2024-03-02T03:48:20;95627.50;;;4.38;99.87
84878;BME280;75140;47.754;8.840;2024-03-02T03:50:45;95624.81;;;4.24;99.45
84878;BME280;75140;47.754;8.840;2024-03-02T03:53:11;95626.25;;;4.26;99.53
84878;BME280;75140;47.754;8.840;2024-03-02T03:55:36;95630.06;;;4.24;100.00
84878;BME280;75140;47.754;8.840;2024-03-02T03:58:01;95630.38;;;4.29;99.75
84878;BME280;75140;47.754;8.840;2024-03-02T04:00:27;95624.63;;;4.25;100.00
84878;BME280;75140;47.754;8.840;2024-03-02T04:02:52;95623.63;;;4.26;100.00
84878;BME280;75140;47.754;8.840;2024-03-02T04:05:17;95626.88;;;4.36;100.00
84878;BME280;75140;47.754;8.840;2024-03-02T04:07:43;95616.59;;;4.27;99.44
84878;BME280;75140;47.754;8.840;2024-03-02T04:10:09;95628.84;;;4.34;100.00
84878;BME280;75140;47.754;8.840;2024-03-02T04:12:38;95631.44;;;4.42;100.00
84878;BME280;75140;47.754;8.840;2024-03-02T04:15:07;95631.44;;;4.42;99.76
84878;BME280;75140;47.754;8.840;2024-03-02T04:17:33;95641.00;;;4.35;100.00
84878;BME280;75140;47.754;8.840;2024-03-02T04:19:59;95631.75;;;4.39;100.00
84878;BME280;75140;47.754;8.840;2024-03-02T04:22:25;95641.53;;;4.23;100.00
84878;BME280;75140;47.754;8.840;2024-03-02T04:24:50;95641.19;;;4.34;100.00
84878;BME280;75140;47.754;8.840;2024-03-02T04:27:16;95645.78;;;4.32;100.00
84878;BME280;75140;47.754;8.840;2024-03-02T04:29:41;95639.03;;;4.37;100.00
84878;BME280;75140;47.754;8.840;2024-03-02T04:32:06;95634.09;;;4.34;100.00
84878;BME280;75140;47.754;8.840;2024-03-02T04:34:32;95632.47;;;4.33;100.00
84878;BME280;75140;47.754;8.840;2024-03-02T04:36:57;95629.59;;;4.51;100.00
84878;BME280;75140;47.754;8.840;2024-03-02T04:39:22;95633.97;;;4.58;100.00
84878;BME280;75140;47.754;8.840;2024-03-02T04:41:48;95630.75;;;4.48;100.00
84878;BME280;75140;47.754;8.840;2024-03-02T04:44:13;95626.06;;;4.58;100.00
84878;BME280;75140;47.754;8.840;2024-03-02T04:46:38;95626.84;;;4.67;100.00
84878;BME280;75140;47.754;8.840;2024-03-02T04:49:04;95622.16;;;4.77;100.00
84878;BME280;75140;47.754;8.840;2024-03-02T04:51:29;95615.00;;;4.71;99.78
84878;BME280;75140;47.754;8.840;2024-03-02T04:53:55;95616.44;;;4.73;99.43
84878;BME280;75140;47.754;8.840;2024-03-02T04:56:20;95625.41;;;4.64;99.68
84878;BME280;75140;47.754;8.840;2024-03-02T04:58:51;95625.09;;;4.82;99.96
84878;BME280;75140;47.754;8.840;2024-03-02T05:01:16;95631.47;;;4.87;100.00
84878;BME280;75140;47.754;8.840;2024-03-02T05:03:42;95633.88;;;4.74;100.00
84878;BME280;75140;47.754;8.840;2024-03-02T05:06:08;95635.25;;;4.62;100.00
84878;BME280;75140;47.754;8.840;2024-03-02T05:08:34;95641.81;;;4.66;99.56
84878;BME280;75140;47.754;8.840;2024-03-02T05:10:59;95649.06;;;4.56;99.22
84878;BME280;75140;47.754;8.840;2024-03-02T05:13:44;95644.91;;;4.39;99.69
84878;BME280;75140;47.754;8.840;2024-03-02T05:16:09;95646.50;;;4.48;99.97
84878;BME280;75140;47.754;8.840;2024-03-02T05:18:37;95655.38;;;4.47;99.59
84878;BME280;75140;47.754;8.840;2024-03-02T05:21:03;95645.56;;;4.41;99.55
84878;BME280;75140;47.754;8.840;2024-03-02T05:23:28;95652.13;;;4.45;99.38
84878;BME280;75140;47.754;8.840;2024-03-02T05:25:54;95649.78;;;4.50;99.18
84878;BME280;75140;47.754;8.840;2024-03-02T05:28:19;95659.63;;;4.48;98.04
84878;BME280;75140;47.754;8.840;2024-03-02T05:30:44;95660.28;;;4.50;98.92
84878;BME280;75140;47.754;8.840;2024-03-02T05:33:10;95653.44;;;4.41;98.48
84878;BME280;75140;47.754;8.840;2024-03-02T05:35:35;95653.44;;;4.41;97.90
84878;BME280;75140;47.754;8.840;2024-03-02T05:38:01;95663.94;;;4.41;98.98
84878;BME280;75140;47.754;8.840;2024-03-02T05:40:26;95650.63;;;4.43;98.22
84878;BME280;75140;47.754;8.840;2024-03-02T05:42:51;95654.44;;;4.40;99.38
84878;BME280;75140;47.754;8.840;2024-03-02T05:45:17;95658.69;;;4.41;99.55
84878;BME280;75140;47.754;8.840;2024-03-02T05:47:42;95657.84;;;4.49;98.80
84878;BME280;75140;47.754;8.840;2024-03-02T05:50:07;95659.28;;;4.51;99.51
84878;BME280;75140;47.754;8.840;2024-03-02T05:52:33;95665.53;;;4.50;99.31
84878;BME280;75140;47.754;8.840;2024-03-02T05:54:58;95666.03;;;4.54;99.43
84878;BME280;75140;47.754;8.840;2024-03-02T05:57:24;95670.09;;;4.56;99.16
84878;BME280;75140;47.754;8.840;2024-03-02T06:00:04;95655.88;;;4.51;99.47
84878;BME280;75140;47.754;8.840;2024-03-02T06:02:33;95664.84;;;4.56;99.38
84878;BME280;75140;47.754;8.840;2024-03-02T06:05:00;95673.06;;;4.53;99.31
84878;BME280;75140;47.754;8.840;2024-03-02T06:07:25;95668.81;;;4.52;99.72
84878;BME280;75140;47.754;8.840;2024-03-02T06:09:51;95664.59;;;4.43;99.11
84878;BME280;75140;47.754;8.840;2024-03-02T06:12:18;95659.38;;;4.35;99.73
84878;BME280;75140;47.754;8.840;2024-03-02T06:14:43;95675.22;;;4.50;99.96
84878;BME280;75140;47.754;8.840;2024-03-02T06:17:09;95668.84;;;4.44;99.17
84878;BME280;75140;47.754;8.840;2024-03-02T06:19:34;95675.72;;;4.53;98.96
84878;BME280;75140;47.754;8.840;2024-03-02T06:21:59;95668.59;;;4.62;99.12
84878;BME280;75140;47.754;8.840;2024-03-02T06:24:25;95674.97;;;4.67;98.46
84878;BME280;75140;47.754;8.840;2024-03-02T06:26:51;95676.09;;;4.73;99.27
84878;BME280;75140;47.754;8.840;2024-03-02T06:29:17;95679.47;;;4.59;99.69
84878;BME280;75140;47.754;8.840;2024-03-02T06:31:42;95676.97;;;4.65;99.61
84878;BME280;75140;47.754;8.840;2024-03-02T06:34:08;95683.72;;;4.60;99.96
84878;BME280;75140;47.754;8.840;2024-03-02T06:36:34;95676.78;;;4.67;99.85
84878;BME280;75140;47.754;8.840;2024-03-02T06:38:59;95680.53;;;4.72;99.79
84878;BME280;75140;47.754;8.840;2024-03-02T06:41:25;95677.78;;;4.66;99.30
84878;BME280;75140;47.754;8.840;2024-03-02T06:43:51;95673.97;;;4.68;99.27
84878;BME280;75140;47.754;8.840;2024-03-02T06:46:24;95674.25;;;4.81;98.77
84878;BME280;75140;47.754;8.840;2024-03-02T06:48:49;95677.91;;;4.72;98.08
84878;BME280;75140;47.754;8.840;2024-03-02T06:51:15;95674.13;;;4.75;98.35
84878;BME280;75140;47.754;8.840;2024-03-02T06:53:41;95682.00;;;4.75;98.30
84878;BME280;75140;47.754;8.840;2024-03-02T06:56:07;95681.66;;;4.78;98.47
84878;BME280;75140;47.754;8.840;2024-03-02T06:58:32;95682.31;;;4.80;98.11
84878;BME280;75140;47.754;8.840;2024-03-02T07:00:58;95680.47;;;4.80;98.40
84878;BME280;75140;47.754;8.840;2024-03-02T07:03:25;95678.78;;;4.87;97.76
84878;BME280;75140;47.754;8.840;2024-03-02T07:05:51;95672.13;;;4.77;98.11
84878;BME280;75140;47.754;8.840;2024-03-02T07:08:16;95677.50;;;4.83;98.42
84878;BME280;75140;47.754;8.840;2024-03-02T07:10:41;95673.88;;;4.84;97.85
84878;BME280;75140;47.754;8.840;2024-03-02T07:13:07;95678.19;;;4.77;97.81
84878;BME280;75140;47.754;8.840;2024-03-02T07:15:32;95677.50;;;4.83;97.43
84878;BME280;75140;47.754;8.840;2024-03-02T07:18:30;95677.50;;;4.83;99.05
84878;BME280;75140;47.754;8.840;2024-03-02T07:20:56;95672.38;;;4.90;99.03
84878;BME280;75140;47.754;8.840;2024-03-02T07:23:24;95672.94;;;4.77;99.16
84878;BME280;75140;47.754;8.840;2024-03-02T07:25:52;95671.63;;;4.81;98.85
84878;BME280;75140;47.754;8.840;2024-03-02T07:28:20;95669.66;;;4.75;98.05
84878;BME280;75140;47.754;8.840;2024-03-02T07:30:45;95671.25;;;4.84;98.25
84878;BME280;75140;47.754;8.840;2024-03-02T07:33:11;95670.13;;;4.79;97.64
84878;BME280;75140;47.754;8.840;2024-03-02T07:35:36;95675.50;;;4.85;97.16
84878;BME280;75140;47.754;8.840;2024-03-02T07:38:01;95668.28;;;4.87;96.37
84878;BME280;75140;47.754;8.840;2024-03-02T07:40:27;95674.00;;;4.91;98.33
84878;BME280;75140;47.754;8.840;2024-03-02T07:42:52;95672.03;;;4.93;97.80
84878;BME280;75140;47.754;8.840;2024-03-02T07:45:17;95677.16;;;4.86;98.56
84878;BME280;75140;47.754;8.840;2024-03-02T07:47:43;95675.63;;;4.92;97.68
84878;BME280;75140;47.754;8.840;2024-03-02T07:50:08;95679.16;;;4.84;97.05
84878;BME280;75140;47.754;8.840;2024-03-02T07:52:34;95671.91;;;4.86;97.14
84878;BME280;75140;47.754;8.840;2024-03-02T07:54:59;95669.88;;;4.97;97.24
84878;BME280;75140;47.754;8.840;2024-03-02T07:57:25;95674.88;;;5.06;96.88
84878;BME280;75140;47.754;8.840;2024-03-02T07:59:51;95669.13;;;5.11;96.75
84878;BME280;75140;47.754;8.840;2024-03-02T08:02:16;95667.94;;;5.13;96.53
84878;BME280;75140;47.754;8.840;2024-03-02T08:04:42;95667.38;;;5.18;96.73
84878;BME280;75140;47.754;8.840;2024-03-02T08:07:07;95669.50;;;5.00;96.74
84878;BME280;75140;47.754;8.840;2024-03-02T08:09:34;95666.59;;;4.95;96.22
84878;BME280;75140;47.754;8.840;2024-03-02T08:11:59;95672.13;;;5.00;96.19
84878;BME280;75140;47.754;8.840;2024-03-02T08:14:25;95673.19;;;4.90;96.52
84878;BME280;75140;47.754;8.840;2024-03-02T08:16:50;95665.47;;;5.12;95.56
84878;BME280;75140;47.754;8.840;2024-03-02T08:19:16;95661.16;;;5.19;96.01
84878;BME280;75140;47.754;8.840;2024-03-02T08:21:42;95664.59;;;5.19;96.29
84878;BME280;75140;47.754;8.840;2024-03-02T08:24:08;95668.75;;;5.36;94.40
84878;BME280;75140;47.754;8.840;2024-03-02T08:26:34;95659.78;;;5.23;95.29
84878;BME280;75140;47.754;8.840;2024-03-02T08:29:00;95659.94;;;5.44;93.81
84878;BME280;75140;47.754;8.840;2024-03-02T08:31:27;95660.41;;;5.47;93.75
84878;BME280;75140;47.754;8.840;2024-03-02T08:33:53;95659.41;;;5.48;93.65
84878;BME280;75140;47.754;8.840;2024-03-02T08:36:18;95659.81;;;5.60;93.13
84878;BME280;75140;47.754;8.840;2024-03-02T08:38:44;95663.78;;;5.70;92.61
84878;BME280;75140;47.754;8.840;2024-03-02T08:41:10;95667.63;;;5.68;93.02
84878;BME280;75140;47.754;8.840;2024-03-02T08:43:38;95668.78;;;5.65;92.11
84878;BME280;75140;47.754;8.840;2024-03-02T08:46:04;95662.09;;;5.26;93.67
84878;BME280;75140;47.754;8.840;2024-03-02T08:48:29;95653.19;;;5.27;94.81
84878;BME280;75140;47.754;8.840;2024-03-02T08:50:54;95661.94;;;5.42;92.20
84878;BME280;75140;47.754;8.840;2024-03-02T08:53:20;95649.00;;;5.55;92.58
84878;BME280;75140;47.754;8.840;2024-03-02T08:55:48;95650.53;;;5.64;92.81
84878;BME280;75140;47.754;8.840;2024-03-02T08:58:14;95647.47;;;5.75;92.76
84878;BME280;75140;47.754;8.840;2024-03-02T09:00:40;95643.97;;;5.82;92.86
84878;BME280;75140;47.754;8.840;2024-03-02T09:03:05;95627.75;;;5.56;91.72
84878;BME280;75140;47.754;8.840;2024-03-02T09:05:31;95635.53;;;5.87;92.59
84878;BME280;75140;47.754;8.840;2024-03-02T09:07:56;95628.13;;;5.68;92.33
84878;BME280;75140;47.754;8.840;2024-03-02T09:10:21;95628.31;;;5.66;92.50
84878;BME280;75140;47.754;8.840;2024-03-02T09:12:47;95630.09;;;5.88;91.69
84878;BME280;75140;47.754;8.840;2024-03-02T09:15:12;95627.06;;;5.91;91.30
84878;BME280;75140;47.754;8.840;2024-03-02T09:17:38;95639.81;;;6.02;92.50
84878;BME280;75140;47.754;8.840;2024-03-02T09:20:05;95638.59;;;6.05;91.58
84878;BME280;75140;47.754;8.840;2024-03-02T09:22:30;95635.34;;;6.03;90.86
84878;BME280;75140;47.754;8.840;2024-03-02T09:24:56;95633.16;;;5.92;91.41
84878;BME280;75140;47.754;8.840;2024-03-02T09:27:21;95620.63;;;6.08;90.62
84878;BME280;75140;47.754;8.840;2024-03-02T09:29:47;95617.09;;;6.16;92.13
84878;BME280;75140;47.754;8.840;2024-03-02T09:32:13;95623.34;;;6.15;90.98
84878;BME280;75140;47.754;8.840;2024-03-02T09:34:39;95603.66;;;6.11;90.76
84878;BME280;75140;47.754;8.840;2024-03-02T09:37:04;95603.09;;;6.16;91.49
84878;BME280;75140;47.754;8.840;2024-03-02T09:39:30;95606.72;;;6.15;91.23
84878;BME280;75140;47.754;8.840;2024-03-02T09:41:56;95604.44;;;6.26;91.44
84878;BME280;75140;47.754;8.840;2024-03-02T09:44:22;95607.03;;;6.41;90.12
84878;BME280;75140;47.754;8.840;2024-03-02T09:46:51;95605.16;;;6.35;91.03
84878;BME280;75140;47.754;8.840;2024-03-02T09:49:17;95609.66;;;6.41;90.90
84878;BME280;75140;47.754;8.840;2024-03-02T09:51:47;95594.03;;;6.54;90.11
84878;BME280;75140;47.754;8.840;2024-03-02T09:54:12;95598.22;;;6.69;89.28
84878;BME280;75140;47.754;8.840;2024-03-02T09:56:39;95599.75;;;6.43;89.89
84878;BME280;75140;47.754;8.840;2024-03-02T09:59:04;95595.81;;;6.18;91.01
84878;BME280;75140;47.754;8.840;2024-03-02T10:01:30;95597.16;;;6.28;90.75
84878;BME280;75140;47.754;8.840;2024-03-02T10:03:59;95596.94;;;6.44;90.68
84878;BME280;75140;47.754;8.840;2024-03-02T10:06:26;95604.66;;;6.46;91.26
84878;BME280;75140;47.754;8.840;2024-03-02T10:08:52;95598.41;;;6.68;89.50
84878;BME280;75140;47.754;8.840;2024-03-02T10:11:32;95596.09;;;6.79;89.19
84878;BME280;75140;47.754;8.840;2024-03-02T10:14:11;95588.81;;;6.81;88.91
84878;BME280;75140;47.754;8.840;2024-03-02T10:16:38;95586.91;;;6.96;90.39
84878;BME280;75140;47.754;8.840;2024-03-02T10:19:33;95585.88;;;7.18;87.36
84878;BME280;75140;47.754;8.840;2024-03-02T10:22:01;95583.38;;;7.32;86.38
84878;BME280;75140;47.754;8.840;2024-03-02T10:24:35;95583.31;;;7.53;86.20
84878;BME280;75140;47.754;8.840;2024-03-02T10:27:06;95578.13;;;7.10;86.29
84878;BME280;75140;47.754;8.840;2024-03-02T10:29:31;95570.72;;;6.99;88.11
84878;BME280;75140;47.754;8.840;2024-03-02T10:31:56;95580.41;;;6.92;87.98
84878;BME280;75140;47.754;8.840;2024-03-02T10:34:24;95570.50;;;6.94;87.17
84878;BME280;75140;47.754;8.840;2024-03-02T10:36:49;95566.09;;;7.29;87.04
84878;BME280;75140;47.754;8.840;2024-03-02T10:39:15;95555.44;;;7.44;85.82
84878;BME280;75140;47.754;8.840;2024-03-02T10:41:40;95553.75;;;7.64;85.21
84878;BME280;75140;47.754;8.840;2024-03-02T10:44:08;95558.09;;;7.44;85.93
84878;BME280;75140;47.754;8.840;2024-03-02T10:46:35;95557.97;;;7.58;87.49
84878;BME280;75140;47.754;8.840;2024-03-02T10:49:02;95551.41;;;7.82;85.76
84878;BME280;75140;47.754;8.840;2024-03-02T10:51:31;95550.59;;;7.81;85.84
84878;BME280;75140;47.754;8.840;2024-03-02T10:53:58;95542.31;;;7.57;85.58
84878;BME280;75140;47.754;8.840;2024-03-02T10:56:39;95538.03;;;7.90;85.88
84878;BME280;75140;47.754;8.840;2024-03-02T11:01:33;95536.06;;;7.98;84.96
84878;BME280;75140;47.754;8.840;2024-03-02T11:04:02;95536.31;;;8.10;83.93
84878;BME280;75140;47.754;8.840;2024-03-02T11:06:28;95542.28;;;8.25;82.81
84878;BME280;75140;47.754;8.840;2024-03-02T11:08:55;95534.28;;;8.85;81.31
84878;BME280;75140;47.754;8.840;2024-03-02T11:11:29;95527.38;;;9.04;79.74
84878;BME280;75140;47.754;8.840;2024-03-02T11:13:57;95529.38;;;9.47;79.15
84878;BME280;75140;47.754;8.840;2024-03-02T11:16:34;95518.28;;;10.78;73.91
84878;BME280;75140;47.754;8.840;2024-03-02T11:19:05;95514.13;;;11.20;71.01
84878;BME280;75140;47.754;8.840;2024-03-02T11:21:33;95499.41;;;13.09;64.67
84878;BME280;75140;47.754;8.840;2024-03-02T11:23:59;95490.88;;;13.19;63.47
84878;BME280;75140;47.754;8.840;2024-03-02T11:26:24;95479.41;;;13.53;61.80
84878;BME280;75140;47.754;8.840;2024-03-02T11:28:50;95476.88;;;13.58;62.29
84878;BME280;75140;47.754;8.840;2024-03-02T11:31:15;95475.56;;;14.23;58.40
84878;BME280;75140;47.754;8.840;2024-03-02T11:33:41;95466.09;;;13.53;59.82
84878;BME280;75140;47.754;8.840;2024-03-02T11:36:07;95462.69;;;13.69;60.59
84878;BME280;75140;47.754;8.840;2024-03-02T11:38:34;95450.19;;;14.61;58.92
84878;BME280;75140;47.754;8.840;2024-03-02T11:41:06;95457.06;;;14.05;57.99
84878;BME280;75140;47.754;8.840;2024-03-02T11:43:37;95452.25;;;13.91;59.68
84878;BME280;75140;47.754;8.840;2024-03-02T11:46:06;95448.34;;;13.70;60.55
84878;BME280;75140;47.754;8.840;2024-03-02T11:48:35;95443.44;;;13.67;60.33
84878;BME280;75140;47.754;8.840;2024-03-02T11:51:02;95444.41;;;14.12;59.17
84878;BME280;75140;47.754;8.840;2024-03-02T11:53:28;95433.25;;;14.15;57.44
84878;BME280;75140;47.754;8.840;2024-03-02T11:55:57;95408.44;;;15.97;52.86
84878;BME280;75140;47.754;8.840;2024-03-02T11:58:23;95404.63;;;15.17;54.60
84878;BME280;75140;47.754;8.840;2024-03-02T12:00:55;95409.63;;;14.97;55.72
84878;BME280;75140;47.754;8.840;2024-03-02T12:03:23;95410.78;;;14.84;56.43
84878;BME280;75140;47.754;8.840;2024-03-02T12:05:57;95399.53;;;14.82;55.73
84878;BME280;75140;47.754;8.840;2024-03-02T12:08:22;95385.50;;;14.92;55.51
84878;BME280;75140;47.754;8.840;2024-03-02T12:11:01;95385.75;;;15.07;54.27
84878;BME280;75140;47.754;8.840;2024-03-02T12:13:27;95380.28;;;15.51;53.56
84878;BME280;75140;47.754;8.840;2024-03-02T12:15:54;95374.91;;;14.64;54.57
84878;BME280;75140;47.754;8.840;2024-03-02T12:18:23;95383.53;;;14.54;55.58
84878;BME280;75140;47.754;8.840;2024-03-02T12:20:49;95381.19;;;15.24;53.51
84878;BME280;75140;47.754;8.840;2024-03-02T12:23:18;95370.72;;;15.77;53.73
84878;BME280;75140;47.754;8.840;2024-03-02T12:25:43;95366.50;;;16.51;51.51
84878;BME280;75140;47.754;8.840;2024-03-02T12:28:09;95364.44;;;16.58;49.38
84878;BME280;75140;47.754;8.840;2024-03-02T12:30:35;95355.88;;;15.48;50.69
84878;BME280;75140;47.754;8.840;2024-03-02T12:33:01;95348.31;;;15.23;52.68
84878;BME280;75140;47.754;8.840;2024-03-02T12:35:27;95340.78;;;15.80;51.00
84878;BME280;75140;47.754;8.840;2024-03-02T12:37:53;95337.38;;;15.85;50.52
84878;BME280;75140;47.754;8.840;2024-03-02T12:40:20;95340.38;;;16.15;49.15
84878;BME280;75140;47.754;8.840;2024-03-02T12:42:47;95329.84;;;16.88;49.33
84878;BME280;75140;47.754;8.840;2024-03-02T12:45:13;95322.84;;;16.82;48.29
84878;BME280;75140;47.754;8.840;2024-03-02T12:47:40;95311.88;;;16.30;49.70
84878;BME280;75140;47.754;8.840;2024-03-02T12:50:07;95299.94;;;16.69;48.60
84878;BME280;75140;47.754;8.840;2024-03-02T12:52:33;95299.34;;;16.36;48.92
84878;BME280;75140;47.754;8.840;2024-03-02T12:55:04;95304.69;;;16.99;48.87
84878;BME280;75140;47.754;8.840;2024-03-02T12:57:31;95303.03;;;16.88;48.11
84878;BME280;75140;47.754;8.840;2024-03-02T13:00:00;95289.81;;;16.18;49.87
84878;BME280;75140;47.754;8.840;2024-03-02T13:02:29;95288.75;;;15.93;50.41
84878;BME280;75140;47.754;8.840;2024-03-02T13:04:56;95295.63;;;16.10;48.26
84878;BME280;75140;47.754;8.840;2024-03-02T13:07:24;95278.09;;;15.33;51.66
84878;BME280;75140;47.754;8.840;2024-03-02T13:09:50;95287.69;;;16.20;50.36